Time;durP1;ratioP1;P1;durP2;ratioP2;P2;SDS_P1;SDS_P2;PMS_P1;PMS_P2;Temp;Humidity;BMP_temperature;BMP_pressure;BME280_temperature;BME280_humidity;BME280_pressure;Samples;Min_cycle;Max_cycle;Signal;HPM_P1;HPM_P2
2022/03/10 00:01:49;;;;;;;16.90;11.33;;;;;;;;;;10332011;28;20227;-76
2022/03/10 00:06:50;;;;;;;12.17;9.87;;;;;;;;;;10327889;28;20575;-74
2022/03/10 00:11:51;;;;;;;13.07;9.20;;;;;;;;;;10316179;28;20208;-74
2022/03/10 00:16:52;;;;;;;16.67;9.18;;;;;;;;;;10329200;28;20199;-76
2022/03/10 00:21:53;;;;;;;14.80;9.93;;;;;;;;;;10329338;28;20216;-74
2022/03/10 00:26:55;;;;;;;13.10;9.17;;;;;;;;;;10322374;28;20231;-75
2022/03/10 00:31:56;;;;;;;12.80;9.03;;;;;;;;;;10334357;28;20244;-75
2022/03/10 00:36:57;;;;;;;14.77;9.13;;;;;;;;;;10327126;28;20319;-74
2022/03/10 00:41:59;;;;;;;12.18;9.15;;;;;;;;;;10329424;28;20228;-75
2022/03/10 00:47:00;;;;;;;13.83;8.93;;;;;;;;;;10324887;28;20201;-75
2022/03/10 00:52:01;;;;;;;12.43;9.07;;;;;;;;;;10327583;28;20514;-76
2022/03/10 00:57:02;;;;;;;19.00;9.80;;;;;;;;;;10330521;28;20212;-74
2022/03/10 01:02:03;;;;;;;10.47;8.17;;;;;;;;;;10359517;28;20255;-74
2022/03/10 01:07:05;;;;;;;12.40;8.63;;;;;;;;;;10336834;28;20196;-74
2022/03/10 01:12:06;;;;;;;11.82;7.93;;;;;;;;;;10331058;28;20611;-75
2022/03/10 01:17:07;;;;;;;12.07;8.65;;;;;;;;;;10328884;28;20197;-72
2022/03/10 01:22:08;;;;;;;10.90;7.77;;;;;;;;;;10335922;28;20220;-74
2022/03/10 01:27:09;;;;;;;14.20;8.23;;;;;;;;;;10332239;28;20201;-72
2022/03/10 01:32:11;;;;;;;10.90;8.50;;;;;;;;;;10371359;28;20248;-73
2022/03/10 01:37:12;;;;;;;12.60;8.70;;;;;;;;;;10360808;28;20208;-73
2022/03/10 01:42:14;;;;;;;14.57;8.97;;;;;;;;;;10361888;28;20908;-75
2022/03/10 01:47:15;;;;;;;10.93;7.77;;;;;;;;;;10329168;28;20608;-73
2022/03/10 01:52:16;;;;;;;11.27;7.80;;;;;;;;;;10330702;28;20205;-73
2022/03/10 01:57:18;;;;;;;12.40;8.20;;;;;;;;;;10360903;28;20204;-75
2022/03/10 02:02:19;;;;;;;11.52;8.40;;;;;;;;;;10336897;28;20228;-75
2022/03/10 02:12:39;;;;;;;12.73;8.30;;;;;;;;;;10330676;28;20291;-75
2022/03/10 02:17:41;;;;;;;13.53;8.10;;;;;;;;;;10327402;28;20299;-74
2022/03/10 02:22:42;;;;;;;11.83;7.77;;;;;;;;;;10334514;28;20688;-75
2022/03/10 02:27:49;;;;;;;14.77;8.33;;;;;;;;;;10330245;28;20210;-75
2022/03/10 02:32:50;;;;;;;13.97;8.03;;;;;;;;;;10324741;28;20223;-75
2022/03/10 02:37:52;;;;;;;16.63;8.87;;;;;;;;;;10331336;28;20216;-73
2022/03/10 02:42:53;;;;;;;10.07;7.47;;;;;;;;;;10323885;28;20649;-74
2022/03/10 02:47:54;;;;;;;15.17;8.43;;;;;;;;;;10327142;28;20220;-74
2022/03/10 02:52:55;;;;;;;11.20;7.90;;;;;;;;;;10327326;28;20200;-73
2022/03/10 02:57:56;;;;;;;14.43;8.40;;;;;;;;;;10360565;28;20576;-73
2022/03/10 03:02:57;;;;;;;12.37;7.43;;;;;;;;;;10332853;28;20214;-74
2022/03/10 03:07:58;;;;;;;9.27;7.30;;;;;;;;;;10330717;28;20396;-73
2022/03/10 03:12:59;;;;;;;12.10;7.53;;;;;;;;;;10361981;28;20208;-72
2022/03/10 03:18:01;;;;;;;9.63;7.57;;;;;;;;;;10328224;28;20380;-73
2022/03/10 03:23:02;;;;;;;12.13;7.50;;;;;;;;;;10328312;28;20490;-74
2022/03/10 03:28:03;;;;;;;10.77;8.00;;;;;;;;;;10331058;28;20208;-74
2022/03/10 03:33:04;;;;;;;17.73;7.47;;;;;;;;;;10325090;28;20225;-73
2022/03/10 03:38:05;;;;;;;10.67;7.27;;;;;;;;;;10316130;28;20232;-73
2022/03/10 03:43:06;;;;;;;12.03;7.60;;;;;;;;;;10325823;28;20200;-75
2022/03/10 03:48:07;;;;;;;8.90;7.63;;;;;;;;;;10325277;28;20689;-73
2022/03/10 03:53:08;;;;;;;11.27;7.80;;;;;;;;;;10321002;28;20668;-75
2022/03/10 03:58:11;;;;;;;9.97;7.33;;;;;;;;;;10357668;28;20216;-74
2022/03/10 04:03:12;;;;;;;12.40;8.17;;;;;;;;;;10321129;28;20213;-74
2022/03/10 04:08:14;;;;;;;12.20;8.70;;;;;;;;;;10330170;28;20239;-73
2022/03/10 04:13:15;;;;;;;9.93;7.03;;;;;;;;;;10335598;28;20317;-74
2022/03/10 04:18:17;;;;;;;12.13;7.20;;;;;;;;;;10334721;28;20256;-73
2022/03/10 04:23:18;;;;;;;10.63;6.80;;;;;;;;;;10342386;28;20241;-74
2022/03/10 04:28:19;;;;;;;10.53;7.27;;;;;;;;;;10334306;28;20664;-73
2022/03/10 04:33:20;;;;;;;11.03;7.40;;;;;;;;;;10365546;28;20231;-75
2022/03/10 04:38:21;;;;;;;9.67;7.30;;;;;;;;;;10333020;28;20231;-75
2022/03/10 04:43:22;;;;;;;9.40;6.97;;;;;;;;;;10330402;28;20219;-72
2022/03/10 04:48:23;;;;;;;11.20;7.63;;;;;;;;;;10331458;28;20263;-75
2022/03/10 04:53:24;;;;;;;10.93;7.33;;;;;;;;;;10332399;28;20205;-75
2022/03/10 04:58:25;;;;;;;12.57;7.63;;;;;;;;;;10328482;28;20208;-76
2022/03/10 05:03:26;;;;;;;11.63;7.60;;;;;;;;;;10322039;28;20554;-76
2022/03/10 05:08:28;;;;;;;11.13;7.97;;;;;;;;;;10329877;28;20204;-75
2022/03/10 05:13:29;;;;;;;11.03;6.90;;;;;;;;;;10324702;28;20217;-75
2022/03/10 05:18:30;;;;;;;9.37;6.70;;;;;;;;;;10326261;28;20212;-75
2022/03/10 05:23:31;;;;;;;11.90;7.73;;;;;;;;;;10329614;28;20196;-75
2022/03/10 05:28:33;;;;;;;12.97;7.03;;;;;;;;;;10368078;28;20197;-74
2022/03/10 05:33:34;;;;;;;8.33;6.63;;;;;;;;;;10328806;28;20220;-75
2022/03/10 05:38:36;;;;;;;11.20;7.30;;;;;;;;;;10327822;28;20225;-74
2022/03/10 05:43:37;;;;;;;11.77;7.60;;;;;;;;;;10333169;28;20215;-76
2022/03/10 05:48:38;;;;;;;10.20;6.97;;;;;;;;;;10330313;28;20200;-77
2022/03/10 05:53:39;;;;;;;12.67;8.10;;;;;;;;;;10336838;28;21357;-76
2022/03/10 05:58:40;;;;;;;13.67;7.73;;;;;;;;;;10335042;28;20212;-75
2022/03/10 06:03:41;;;;;;;11.77;8.00;;;;;;;;;;10323829;28;20224;-75
2022/03/10 06:08:43;;;;;;;12.80;8.00;;;;;;;;;;10335316;28;20294;-75
2022/03/10 06:13:44;;;;;;;12.37;8.03;;;;;;;;;;10336263;28;20204;-76
2022/03/10 06:18:45;;;;;;;12.43;8.13;;;;;;;;;;10331345;28;20633;-76
2022/03/10 06:23:46;;;;;;;17.13;8.33;;;;;;;;;;10330330;28;20196;-76
2022/03/10 06:28:47;;;;;;;15.33;9.43;;;;;;;;;;10333708;28;20327;-76
2022/03/10 06:33:48;;;;;;;13.17;8.90;;;;;;;;;;10334425;28;20314;-76
2022/03/10 06:38:49;;;;;;;18.87;9.40;;;;;;;;;;10337763;28;20232;-75
2022/03/10 06:43:50;;;;;;;14.80;9.73;;;;;;;;;;10333046;28;20247;-74
2022/03/10 06:48:51;;;;;;;24.40;11.83;;;;;;;;;;10333975;28;20203;-75
2022/03/10 06:53:54;;;;;;;47.80;22.47;;;;;;;;;;10334455;28;20196;-74
2022/03/10 06:58:55;;;;;;;27.00;14.23;;;;;;;;;;10334150;28;20674;-74
2022/03/10 07:03:57;;;;;;;24.90;13.50;;;;;;;;;;10339991;28;20212;-74
2022/03/10 07:08:58;;;;;;;27.97;12.53;;;;;;;;;;10333868;28;20720;-74
2022/03/10 07:13:59;;;;;;;19.70;10.53;;;;;;;;;;10332810;28;20200;-73
2022/03/10 07:19:00;;;;;;;22.00;10.87;;;;;;;;;;10362661;28;20299;-76
2022/03/10 07:24:01;;;;;;;19.40;10.57;;;;;;;;;;10332892;28;20354;-77
2022/03/10 07:29:02;;;;;;;28.30;11.50;;;;;;;;;;10329128;28;20279;-75
2022/03/10 07:34:03;;;;;;;21.17;11.70;;;;;;;;;;10336965;28;20298;-75
2022/03/10 07:39:04;;;;;;;20.02;10.95;;;;;;;;;;10335737;28;21183;-75
2022/03/10 07:44:05;;;;;;;18.27;10.65;;;;;;;;;;10339416;28;20199;-75
2022/03/10 07:49:08;;;;;;;19.42;10.25;;;;;;;;;;10341179;28;20235;-74
2022/03/10 07:54:09;;;;;;;18.85;10.80;;;;;;;;;;10368161;28;20215;-75
2022/03/10 07:59:10;;;;;;;18.77;10.82;;;;;;;;;;10339607;28;21239;-76
2022/03/10 08:04:12;;;;;;;14.70;9.52;;;;;;;;;;10339051;28;20247;-76
2022/03/10 08:09:13;;;;;;;17.00;9.95;;;;;;;;;;10342023;28;20208;-76
2022/03/10 08:14:14;;;;;;;21.20;11.13;;;;;;;;;;10338131;28;20204;-76
2022/03/10 08:19:16;;;;;;;16.13;10.68;;;;;;;;;;10341662;28;20606;-76
2022/03/10 08:24:17;;;;;;;18.20;11.38;;;;;;;;;;10338353;28;20201;-76
2022/03/10 08:29:18;;;;;;;15.95;10.35;;;;;;;;;;10340646;28;20200;-77
2022/03/10 08:34:19;;;;;;;16.92;10.20;;;;;;;;;;10359091;28;20723;-76
2022/03/10 08:39:23;;;;;;;16.60;10.43;;;;;;;;;;10354040;28;20228;-77
2022/03/10 08:44:25;;;;;;;17.60;9.68;;;;;;;;;;10342459;28;20214;-76
2022/03/10 08:49:26;;;;;;;21.33;10.13;;;;;;;;;;10343906;28;20795;-78
2022/03/10 08:54:27;;;;;;;15.35;9.38;;;;;;;;;;10341854;28;20201;-78
2022/03/10 08:59:28;;;;;;;14.18;9.73;;;;;;;;;;10345548;28;20207;-79
2022/03/10 09:04:29;;;;;;;13.90;9.35;;;;;;;;;;10353973;28;20208;-85
2022/03/10 09:09:30;;;;;;;15.18;9.25;;;;;;;;;;10353457;28;20734;-80
2022/03/10 09:14:31;;;;;;;13.70;9.00;;;;;;;;;;10351494;28;20208;-81
2022/03/10 09:19:32;;;;;;;18.13;9.57;;;;;;;;;;10343673;28;20208;-80
2022/03/10 09:24:34;;;;;;;12.25;8.55;;;;;;;;;;10337549;28;20192;-78
2022/03/10 09:29:35;;;;;;;11.88;7.88;;;;;;;;;;10348686;28;20200;-78
2022/03/10 09:34:36;;;;;;;12.50;8.63;;;;;;;;;;10342783;28;20250;-77
2022/03/10 09:39:37;;;;;;;19.45;9.02;;;;;;;;;;10346793;28;20232;-79
2022/03/10 09:44:42;;;;;;;14.40;7.63;;;;;;;;;;10342943;28;20576;-77
2022/03/10 09:49:43;;;;;;;11.98;8.57;;;;;;;;;;10343700;28;20351;-79
2022/03/10 09:54:44;;;;;;;12.20;9.07;;;;;;;;;;10341697;28;20203;-76
2022/03/10 09:59:49;;;;;;;9.10;6.95;;;;;;;;;;10372578;28;20744;-76
2022/03/10 10:04:51;;;;;;;13.57;9.23;;;;;;;;;;10369620;28;20319;-77
2022/03/10 10:09:54;;;;;;;12.18;8.27;;;;;;;;;;10340135;28;20283;-74
2022/03/10 10:15:00;;;;;;;13.63;9.27;;;;;;;;;;10365224;28;20203;-73
2022/03/10 10:20:01;;;;;;;11.05;9.82;;;;;;;;;;10368003;28;20247;-77
2022/03/10 10:25:05;;;;;;;14.40;10.25;;;;;;;;;;10333492;28;20282;-76
2022/03/10 10:30:07;;;;;;;12.13;7.75;;;;;;;;;;10329415;28;20240;-75
2022/03/10 10:35:09;;;;;;;8.80;6.80;;;;;;;;;;10332304;28;20224;-75
2022/03/10 10:40:11;;;;;;;6.47;5.45;;;;;;;;;;10373168;28;21231;-76
2022/03/10 10:45:31;;;;;;;6.22;4.57;;;;;;;;;;10339884;28;20257;-77
2022/03/10 10:50:33;;;;;;;4.82;4.43;;;;;;;;;;10342964;28;20209;-78
2022/03/10 10:55:38;;;;;;;4.07;3.78;;;;;;;;;;10343887;28;20689;-75
2022/03/10 11:00:40;;;;;;;7.63;4.50;;;;;;;;;;10339058;28;20232;-77
2022/03/10 11:05:41;;;;;;;2.53;2.33;;;;;;;;;;10339735;28;20221;-78
2022/03/10 11:10:43;;;;;;;3.70;3.13;;;;;;;;;;10332546;28;20284;-79
2022/03/10 11:15:44;;;;;;;4.10;2.08;;;;;;;;;;10336243;28;21037;-80
2022/03/10 11:20:47;;;;;;;2.63;2.42;;;;;;;;;;10340999;28;20216;-76
2022/03/10 11:25:48;;;;;;;2.90;2.70;;;;;;;;;;10335498;28;20208;-81
2022/03/10 11:30:51;;;;;;;3.33;3.03;;;;;;;;;;10335132;28;20621;-77
2022/03/10 11:35:52;;;;;;;4.13;3.05;;;;;;;;;;10341205;28;20704;-79
2022/03/10 11:40:57;;;;;;;2.92;2.70;;;;;;;;;;10342378;28;20220;-79
2022/03/10 11:46:13;;;;;;;8.30;4.10;;;;;;;;;;10372150;28;20200;-78
2022/03/10 11:51:17;;;;;;;3.53;3.22;;;;;;;;;;10340315;28;20211;-80
2022/03/10 11:56:18;;;;;;;4.13;3.83;;;;;;;;;;10356297;28;20210;-81
2022/03/10 12:01:20;;;;;;;3.17;2.97;;;;;;;;;;10342308;28;20225;-79
2022/03/10 12:06:30;;;;;;;2.95;2.70;;;;;;;;;;10338866;28;20201;-77
2022/03/10 12:11:47;;;;;;;3.50;2.72;;;;;;;;;;10339177;28;20334;-76
2022/03/10 12:16:48;;;;;;;3.13;2.75;;;;;;;;;;10335829;28;20287;-77
2022/03/10 12:21:49;;;;;;;4.95;2.90;;;;;;;;;;10338218;28;20208;-77
2022/03/10 12:26:50;;;;;;;4.57;3.53;;;;;;;;;;10335936;28;20612;-77
2022/03/10 12:31:55;;;;;;;3.60;3.40;;;;;;;;;;10339574;28;20270;-77
2022/03/10 12:36:59;;;;;;;4.00;3.65;;;;;;;;;;10338315;28;20274;-76
2022/03/10 12:42:04;;;;;;;4.03;3.72;;;;;;;;;;10344424;28;20221;-77
2022/03/10 12:47:07;;;;;;;4.90;4.50;;;;;;;;;;10340540;28;20201;-79
2022/03/10 12:52:12;;;;;;;6.80;4.88;;;;;;;;;;10337714;28;20208;-78
2022/03/10 12:57:13;;;;;;;6.65;5.90;;;;;;;;;;10341307;28;20743;-80
2022/03/10 13:02:18;;;;;;;5.95;5.45;;;;;;;;;;10342000;28;20232;-78
2022/03/10 13:07:22;;;;;;;7.65;6.82;;;;;;;;;;10342285;28;20273;-77
2022/03/10 13:12:29;;;;;;;9.02;7.40;;;;;;;;;;10370530;28;20203;-79
2022/03/10 13:17:31;;;;;;;12.30;7.32;;;;;;;;;;10344353;28;20203;-79
2022/03/10 13:22:32;;;;;;;9.85;8.27;;;;;;;;;;10370742;28;20222;-79
2022/03/10 13:27:34;;;;;;;10.25;8.80;;;;;;;;;;10370957;28;20642;-81
2022/03/10 13:32:35;;;;;;;8.40;7.60;;;;;;;;;;10336380;28;20782;-79
2022/03/10 13:37:36;;;;;;;7.88;7.07;;;;;;;;;;10336350;28;20208;-80
2022/03/10 13:42:37;;;;;;;8.18;7.38;;;;;;;;;;10374417;28;20248;-80
2022/03/10 13:47:57;;;;;;;7.25;6.55;;;;;;;;;;10342507;28;20197;-82
2022/03/10 13:52:59;;;;;;;10.45;7.28;;;;;;;;;;10347056;28;20215;-82
2022/03/10 13:58:01;;;;;;;8.43;7.28;;;;;;;;;;10343396;28;20219;-82
2022/03/10 14:03:08;;;;;;;8.25;7.20;;;;;;;;;;10347185;28;20255;-81
2022/03/10 14:08:12;;;;;;;7.70;7.00;;;;;;;;;;10345360;28;20251;-81
2022/03/10 14:13:13;;;;;;;11.65;7.07;;;;;;;;;;10341695;28;20611;-83
2022/03/10 14:18:15;;;;;;;8.57;5.95;;;;;;;;;;10340037;28;20654;-82
2022/03/10 14:23:21;;;;;;;7.80;6.25;;;;;;;;;;10344164;28;20196;-82
2022/03/10 14:28:35;;;;;;;5.75;5.35;;;;;;;;;;10377038;28;20611;-81
2022/03/10 14:33:37;;;;;;;7.22;6.32;;;;;;;;;;10341912;28;20221;-82
2022/03/10 14:38:39;;;;;;;7.60;6.80;;;;;;;;;;10343597;28;20315;-79
2022/03/10 14:43:40;;;;;;;8.05;6.07;;;;;;;;;;10344287;28;20232;-77
2022/03/10 14:48:42;;;;;;;6.45;5.88;;;;;;;;;;10345311;28;20208;-81
2022/03/10 14:53:43;;;;;;;6.05;5.55;;;;;;;;;;10341184;28;20236;-81
2022/03/10 14:58:45;;;;;;;6.80;6.22;;;;;;;;;;10346385;28;20207;-80
2022/03/10 15:03:46;;;;;;;8.68;6.45;;;;;;;;;;10340941;28;20212;-80
2022/03/10 15:08:47;;;;;;;9.38;6.70;;;;;;;;;;10341378;28;20811;-80
2022/03/10 15:13:48;;;;;;;8.00;7.22;;;;;;;;;;10337037;28;20299;-81
2022/03/10 15:18:49;;;;;;;9.25;7.13;;;;;;;;;;10347317;28;20212;-80
2022/03/10 15:23:51;;;;;;;7.65;6.97;;;;;;;;;;10382823;28;20196;-81
2022/03/10 15:28:52;;;;;;;10.45;7.40;;;;;;;;;;10349668;28;20208;-82
2022/03/10 15:33:53;;;;;;;10.70;9.00;;;;;;;;;;10344812;28;20216;-81
2022/03/10 15:38:55;;;;;;;10.75;9.65;;;;;;;;;;10345947;28;20223;-78
2022/03/10 15:43:56;;;;;;;15.82;9.57;;;;;;;;;;10343832;28;20200;-82
2022/03/10 15:48:57;;;;;;;16.85;11.75;;;;;;;;;;10345323;28;20219;-81
2022/03/10 15:53:58;;;;;;;15.10;10.20;;;;;;;;;;10339951;28;20205;-82
2022/03/10 15:58:59;;;;;;;19.20;12.48;;;;;;;;;;10356620;28;20212;-80
2022/03/10 16:04:00;;;;;;;21.27;13.30;;;;;;;;;;10348068;28;20236;-81
2022/03/10 16:09:01;;;;;;;23.60;16.48;;;;;;;;;;10357987;28;20250;-81
2022/03/10 16:14:02;;;;;;;22.13;15.25;;;;;;;;;;10354987;28;20200;-83
2022/03/10 16:19:04;;;;;;;20.40;14.98;;;;;;;;;;10353042;28;20239;-80
2022/03/10 16:24:05;;;;;;;26.13;17.00;;;;;;;;;;10387080;28;20215;-81
2022/03/10 16:29:06;;;;;;;25.08;17.48;;;;;;;;;;10356843;28;20188;-82
2022/03/10 16:34:07;;;;;;;23.85;17.88;;;;;;;;;;10387606;28;20267;-82
2022/03/10 16:39:10;;;;;;;26.27;17.98;;;;;;;;;;10353478;28;20303;-78
2022/03/10 16:44:14;;;;;;;29.33;19.25;;;;;;;;;;10356790;28;20238;-81
2022/03/10 16:49:17;;;;;;;27.55;18.90;;;;;;;;;;10354092;28;20301;-80
2022/03/10 16:54:19;;;;;;;28.85;18.00;;;;;;;;;;10352350;28;20274;-83
2022/03/10 16:59:20;;;;;;;26.92;18.17;;;;;;;;;;10385365;28;20208;-80
2022/03/10 17:04:21;;;;;;;22.50;15.52;;;;;;;;;;10353724;28;20220;-81
2022/03/10 17:09:22;;;;;;;24.25;15.25;;;;;;;;;;10350496;28;20731;-82
2022/03/10 17:14:23;;;;;;;24.25;14.43;;;;;;;;;;10358751;28;20205;-78
2022/03/10 17:19:25;;;;;;;23.25;14.10;;;;;;;;;;10340971;28;20213;-77
2022/03/10 17:24:27;;;;;;;19.52;13.48;;;;;;;;;;10344551;28;20211;-77
2022/03/10 17:29:28;;;;;;;20.23;13.00;;;;;;;;;;10342836;28;20291;-77
2022/03/10 17:34:29;;;;;;;22.30;14.10;;;;;;;;;;10342219;28;20221;-79
2022/03/10 17:39:31;;;;;;;23.73;13.20;;;;;;;;;;10354320;28;20231;-78
2022/03/10 17:44:32;;;;;;;16.55;12.35;;;;;;;;;;10351525;28;20192;-80
2022/03/10 17:49:33;;;;;;;19.73;12.68;;;;;;;;;;10348764;28;20233;-77
2022/03/10 17:54:34;;;;;;;19.25;12.82;;;;;;;;;;10351604;28;20197;-78
2022/03/10 17:59:35;;;;;;;17.63;12.75;;;;;;;;;;10341018;28;20622;-74
2022/03/10 18:04:36;;;;;;;17.45;12.60;;;;;;;;;;10345029;28;20732;-76
2022/03/10 18:09:38;;;;;;;16.35;12.05;;;;;;;;;;10377112;28;20212;-75
2022/03/10 18:14:39;;;;;;;17.65;13.32;;;;;;;;;;10346897;28;20228;-74
2022/03/10 18:19:40;;;;;;;18.60;12.80;;;;;;;;;;10338573;28;20917;-76
2022/03/10 18:24:41;;;;;;;19.70;13.40;;;;;;;;;;10343458;28;20295;-78
2022/03/10 18:29:43;;;;;;;20.55;13.75;;;;;;;;;;10341145;28;20209;-74
2022/03/10 18:34:44;;;;;;;18.02;13.00;;;;;;;;;;10340102;28;20220;-74
2022/03/10 18:39:45;;;;;;;19.77;13.52;;;;;;;;;;10341934;28;20239;-74
2022/03/10 18:44:46;;;;;;;21.05;13.60;;;;;;;;;;10342186;28;20255;-74
2022/03/10 18:49:48;;;;;;;18.55;13.63;;;;;;;;;;10341920;28;20196;-74
2022/03/10 18:54:50;;;;;;;16.70;12.60;;;;;;;;;;10340087;28;20205;-74
2022/03/10 18:59:51;;;;;;;18.77;11.65;;;;;;;;;;10339463;28;20305;-74
2022/03/10 19:04:53;;;;;;;18.58;12.45;;;;;;;;;;10368238;28;20220;-74
2022/03/10 19:09:54;;;;;;;17.15;12.63;;;;;;;;;;10340063;28;20211;-76
2022/03/10 19:14:56;;;;;;;15.77;11.30;;;;;;;;;;10337388;28;20200;-76
2022/03/10 19:19:57;;;;;;;16.13;12.27;;;;;;;;;;10336052;28;20700;-76
2022/03/10 19:24:58;;;;;;;14.50;10.85;;;;;;;;;;10344405;28;20242;-76
2022/03/10 19:29:59;;;;;;;16.63;11.38;;;;;;;;;;10369346;28;20652;-76
2022/03/10 19:35:00;;;;;;;14.00;11.13;;;;;;;;;;10333974;28;20216;-76
2022/03/10 19:40:01;;;;;;;14.73;11.13;;;;;;;;;;10340682;28;20232;-77
2022/03/10 19:45:04;;;;;;;11.27;9.98;;;;;;;;;;10336334;28;20196;-78
2022/03/10 19:50:05;;;;;;;14.00;10.20;;;;;;;;;;10336759;28;20224;-74
2022/03/10 19:55:08;;;;;;;14.20;10.60;;;;;;;;;;10335128;28;20221;-74
2022/03/10 20:00:11;;;;;;;12.98;9.35;;;;;;;;;;10338594;28;20208;-76
2022/03/10 20:05:15;;;;;;;19.35;14.70;;;;;;;;;;10337066;28;20249;-75
2022/03/10 20:10:16;;;;;;;11.82;8.93;;;;;;;;;;10334810;28;20912;-75
2022/03/10 20:15:17;;;;;;;12.00;9.32;;;;;;;;;;10338546;28;20213;-75
2022/03/10 20:20:18;;;;;;;18.52;13.88;;;;;;;;;;10369601;28;20583;-77
2022/03/10 20:25:19;;;;;;;12.50;10.40;;;;;;;;;;10344027;28;20193;-77
2022/03/10 20:30:20;;;;;;;12.73;9.23;;;;;;;;;;10336613;28;20661;-78
2022/03/10 20:35:21;;;;;;;11.00;9.07;;;;;;;;;;10343059;28;20246;-78
2022/03/10 20:40:26;;;;;;;12.25;8.38;;;;;;;;;;10336179;28;20235;-78
2022/03/10 20:45:27;;;;;;;8.98;7.60;;;;;;;;;;10342586;28;20287;-78
2022/03/10 20:50:28;;;;;;;10.55;8.18;;;;;;;;;;10341319;28;20208;-77
2022/03/10 20:55:29;;;;;;;10.27;7.45;;;;;;;;;;10346995;28;20207;-77
2022/03/10 21:00:31;;;;;;;9.65;6.63;;;;;;;;;;10349464;28;20716;-76
2022/03/10 21:05:34;;;;;;;7.78;5.97;;;;;;;;;;10380900;28;20250;-76
2022/03/10 21:10:35;;;;;;;9.02;6.63;;;;;;;;;;10344825;28;20255;-72
2022/03/10 21:15:36;;;;;;;9.63;5.43;;;;;;;;;;10347356;28;20208;-77
2022/03/10 21:20:37;;;;;;;8.05;5.95;;;;;;;;;;10349132;28;20575;-78
2022/03/10 21:25:38;;;;;;;7.25;4.32;;;;;;;;;;10343861;28;20207;-78
2022/03/10 21:30:39;;;;;;;4.30;3.90;;;;;;;;;;10341347;28;20217;-78
2022/03/10 21:35:40;;;;;;;6.97;5.13;;;;;;;;;;10342067;28;20209;-80
2022/03/10 21:40:44;;;;;;;12.35;5.13;;;;;;;;;;10346715;28;20231;-79
2022/03/10 21:45:45;;;;;;;11.20;5.30;;;;;;;;;;10346854;28;20300;-74
2022/03/10 21:50:46;;;;;;;10.80;5.22;;;;;;;;;;10338774;28;20220;-77
2022/03/10 21:55:47;;;;;;;5.43;4.65;;;;;;;;;;10338434;28;20208;-76
2022/03/10 22:00:48;;;;;;;8.60;5.10;;;;;;;;;;10342383;28;20229;-77
2022/03/10 22:05:49;;;;;;;6.63;5.10;;;;;;;;;;10374087;28;20659;-77
2022/03/10 22:10:50;;;;;;;7.68;4.95;;;;;;;;;;10344939;28;20192;-76
2022/03/10 22:15:51;;;;;;;5.90;5.30;;;;;;;;;;10344524;28;20220;-77
2022/03/10 22:20:53;;;;;;;9.02;5.18;;;;;;;;;;10346207;28;20761;-78
2022/03/10 22:25:54;;;;;;;5.78;5.18;;;;;;;;;;10347114;28;20283;-77
2022/03/10 22:30:55;;;;;;;7.70;5.32;;;;;;;;;;10375216;28;20305;-76
2022/03/10 22:35:56;;;;;;;7.55;3.70;;;;;;;;;;10341386;28;20200;-78
2022/03/10 22:40:59;;;;;;;8.38;5.97;;;;;;;;;;10344207;28;20251;-78
2022/03/10 22:46:00;;;;;;;8.70;5.50;;;;;;;;;;10339495;28;20259;-77
2022/03/10 22:56:20;;;;;;;8.43;5.57;;;;;;;;;;10346046;28;20715;-76
2022/03/10 23:01:22;;;;;;;9.55;5.55;;;;;;;;;;10341161;28;20627;-78
2022/03/10 23:11:42;;;;;;;7.47;5.55;;;;;;;;;;10339169;28;20275;-76
2022/03/10 23:16:45;;;;;;;7.95;5.53;;;;;;;;;;10332109;28;20214;-79
2022/03/10 23:21:46;;;;;;;11.50;5.95;;;;;;;;;;10363891;28;21901;-76
2022/03/10 23:26:48;;;;;;;8.10;5.75;;;;;;;;;;10333837;28;20655;-76
2022/03/10 23:31:51;;;;;;;7.43;5.10;;;;;;;;;;10340828;28;20204;-76
2022/03/10 23:36:52;;;;;;;6.95;5.72;;;;;;;;;;10342036;28;20211;-77
2022/03/10 23:41:53;;;;;;;8.30;5.82;;;;;;;;;;10340273;28;20726;-77
2022/03/10 23:46:54;;;;;;;8.43;6.22;;;;;;;;;;10340674;28;20207;-77
2022/03/10 23:51:55;;;;;;;7.35;5.68;;;;;;;;;;10337170;28;20715;-77
2022/03/10 23:56:56;;;;;;;10.05;6.85;;;;;;;;;;10341692;28;20209;-77
